sensor_id;sensor_type;location;lat;lon;timestamp;temperature;humidity
3067;DHT22;1544;48.834;9.194;2023-07-22T00:01:44;16.60;51.20
3067;DHT22;1544;48.834;9.194;2023-07-22T00:04:20;16.60;51.10
3067;DHT22;1544;48.834;9.194;2023-07-22T00:06:56;16.60;51.40
3067;DHT22;1544;48.834;9.194;2023-07-22T00:09:35;16.50;51.60
3067;DHT22;1544;48.834;9.194;2023-07-22T00:12:11;16.50;52.30
3067;DHT22;1544;48.834;9.194;2023-07-22T00:14:48;16.50;52.40
3067;DHT22;1544;48.834;9.194;2023-07-22T00:20:00;16.40;52.80
3067;DHT22;1544;48.834;9.194;2023-07-22T00:22:38;16.40;53.10
3067;DHT22;1544;48.834;9.194;2023-07-22T00:25:15;16.30;53.10
3067;DHT22;1544;48.834;9.194;2023-07-22T00:27:51;19.30;56.00
3067;DHT22;1544;48.834;9.194;2023-07-22T00:30:27;16.30;53.30
3067;DHT22;1544;48.834;9.194;2023-07-22T00:33:03;16.30;53.40
3067;DHT22;1544;48.834;9.194;2023-07-22T00:35:39;16.30;53.50
3067;DHT22;1544;48.834;9.194;2023-07-22T00:38:16;16.20;53.40
3067;DHT22;1544;48.834;9.194;2023-07-22T00:40:52;16.20;53.40
3067;DHT22;1544;48.834;9.194;2023-07-22T00:43:29;16.20;53.40
3067;DHT22;1544;48.834;9.194;2023-07-22T00:46:05;16.10;53.50
3067;DHT22;1544;48.834;9.194;2023-07-22T00:48:41;16.10;53.80
3067;DHT22;1544;48.834;9.194;2023-07-22T00:51:18;16.10;54.00
3067;DHT22;1544;48.834;9.194;2023-07-22T00:56:36;16.00;54.20
3067;DHT22;1544;48.834;9.194;2023-07-22T00:59:13;16.00;54.30
3067;DHT22;1544;48.834;9.194;2023-07-22T01:01:49;16.00;54.70
3067;DHT22;1544;48.834;9.194;2023-07-22T01:04:25;16.00;54.80
3067;DHT22;1544;48.834;9.194;2023-07-22T01:07:02;16.00;55.00
3067;DHT22;1544;48.834;9.194;2023-07-22T01:09:43;15.90;55.00
3067;DHT22;1544;48.834;9.194;2023-07-22T01:12:19;15.90;55.40
3067;DHT22;1544;48.834;9.194;2023-07-22T01:14:55;15.90;55.90
3067;DHT22;1544;48.834;9.194;2023-07-22T01:17:31;15.90;56.50
3067;DHT22;1544;48.834;9.194;2023-07-22T01:20:08;15.90;56.90
3067;DHT22;1544;48.834;9.194;2023-07-22T01:22:51;15.90;57.30
3067;DHT22;1544;48.834;9.194;2023-07-22T01:25:28;15.90;57.50
3067;DHT22;1544;48.834;9.194;2023-07-22T01:28:09;15.80;57.60
3067;DHT22;1544;48.834;9.194;2023-07-22T01:30:46;15.80;58.30
3067;DHT22;1544;48.834;9.194;2023-07-22T01:33:22;15.80;58.70
3067;DHT22;1544;48.834;9.194;2023-07-22T01:35:59;15.80;59.00
3067;DHT22;1544;48.834;9.194;2023-07-22T01:38:36;15.80;59.00
3067;DHT22;1544;48.834;9.194;2023-07-22T01:46:24;15.70;59.50
3067;DHT22;1544;48.834;9.194;2023-07-22T01:49:04;15.70;59.60
3067;DHT22;1544;48.834;9.194;2023-07-22T01:51:40;15.70;59.80
3067;DHT22;1544;48.834;9.194;2023-07-22T01:54:16;15.60;59.80
3067;DHT22;1544;48.834;9.194;2023-07-22T01:56:52;15.60;59.90
3067;DHT22;1544;48.834;9.194;2023-07-22T02:02:05;15.60;60.60
3067;DHT22;1544;48.834;9.194;2023-07-22T02:04:41;15.50;61.00
3067;DHT22;1544;48.834;9.194;2023-07-22T02:07:18;15.40;61.30
3067;DHT22;1544;48.834;9.194;2023-07-22T02:09:54;15.40;62.00
3067;DHT22;1544;48.834;9.194;2023-07-22T02:12:30;15.40;62.50
3067;DHT22;1544;48.834;9.194;2023-07-22T02:15:06;15.40;63.10
3067;DHT22;1544;48.834;9.194;2023-07-22T02:20:20;15.40;64.10
3067;DHT22;1544;48.834;9.194;2023-07-22T02:22:56;15.30;64.20
3067;DHT22;1544;48.834;9.194;2023-07-22T02:25:31;15.30;64.50
3067;DHT22;1544;48.834;9.194;2023-07-22T02:28:07;15.30;64.90
3067;DHT22;1544;48.834;9.194;2023-07-22T02:33:21;15.30;66.00
3067;DHT22;1544;48.834;9.194;2023-07-22T02:35:57;15.30;66.40
3067;DHT22;1544;48.834;9.194;2023-07-22T02:38:33;15.20;66.70
3067;DHT22;1544;48.834;9.194;2023-07-22T02:41:09;15.20;67.20
3067;DHT22;1544;48.834;9.194;2023-07-22T02:43:45;15.20;67.40
3067;DHT22;1544;48.834;9.194;2023-07-22T02:46:22;15.20;67.60
3067;DHT22;1544;48.834;9.194;2023-07-22T02:48:58;15.20;67.70
3067;DHT22;1544;48.834;9.194;2023-07-22T02:51:34;15.10;67.70
3067;DHT22;1544;48.834;9.194;2023-07-22T02:54:11;15.10;67.80
3067;DHT22;1544;48.834;9.194;2023-07-22T02:56:47;15.10;67.90
3067;DHT22;1544;48.834;9.194;2023-07-22T02:59:23;15.10;68.10
3067;DHT22;1544;48.834;9.194;2023-07-22T03:02:00;15.10;68.50
3067;DHT22;1544;48.834;9.194;2023-07-22T03:04:36;15.00;68.60
3067;DHT22;1544;48.834;9.194;2023-07-22T03:07:11;15.10;69.00
3067;DHT22;1544;48.834;9.194;2023-07-22T03:09:47;15.10;69.40
3067;DHT22;1544;48.834;9.194;2023-07-22T03:12:23;15.00;69.60
3067;DHT22;1544;48.834;9.194;2023-07-22T03:14:59;15.00;70.20
3067;DHT22;1544;48.834;9.194;2023-07-22T03:17:36;15.10;70.60
3067;DHT22;1544;48.834;9.194;2023-07-22T03:20:12;15.10;71.00
3067;DHT22;1544;48.834;9.194;2023-07-22T03:22:55;15.10;70.80
3067;DHT22;1544;48.834;9.194;2023-07-22T03:25:31;15.10;71.20
3067;DHT22;1544;48.834;9.194;2023-07-22T03:28:08;15.10;71.20
3067;DHT22;1544;48.834;9.194;2023-07-22T03:30:44;15.10;71.00
3067;DHT22;1544;48.834;9.194;2023-07-22T03:33:20;15.10;71.00
3067;DHT22;1544;48.834;9.194;2023-07-22T03:35:56;15.10;70.70
3067;DHT22;1544;48.834;9.194;2023-07-22T03:38:32;15.10;70.60
3067;DHT22;1544;48.834;9.194;2023-07-22T03:41:08;15.00;70.50
3067;DHT22;1544;48.834;9.194;2023-07-22T03:43:44;15.10;70.70
3067;DHT22;1544;48.834;9.194;2023-07-22T03:46:20;15.10;70.50
3067;DHT22;1544;48.834;9.194;2023-07-22T03:48:56;15.10;70.70
3067;DHT22;1544;48.834;9.194;2023-07-22T03:51:33;15.10;70.10
3067;DHT22;1544;48.834;9.194;2023-07-22T03:54:09;15.10;70.40
3067;DHT22;1544;48.834;9.194;2023-07-22T03:56:45;15.10;70.20
3067;DHT22;1544;48.834;9.194;2023-07-22T03:59:21;15.10;70.10
3067;DHT22;1544;48.834;9.194;2023-07-22T04:01:58;15.10;70.10
3067;DHT22;1544;48.834;9.194;2023-07-22T04:04:34;15.10;70.20
3067;DHT22;1544;48.834;9.194;2023-07-22T04:07:10;15.10;70.20
3067;DHT22;1544;48.834;9.194;2023-07-22T04:09:46;15.20;69.50
3067;DHT22;1544;48.834;9.194;2023-07-22T04:12:22;15.70;69.60
3067;DHT22;1544;48.834;9.194;2023-07-22T04:14:58;15.20;68.90
3067;DHT22;1544;48.834;9.194;2023-07-22T04:17:36;15.20;68.50
3067;DHT22;1544;48.834;9.194;2023-07-22T04:20:12;15.30;68.10
3067;DHT22;1544;48.834;9.194;2023-07-22T04:22:48;15.30;68.00
3067;DHT22;1544;48.834;9.194;2023-07-22T04:25:24;15.30;67.80
3067;DHT22;1544;48.834;9.194;2023-07-22T04:28:00;15.30;66.90
3067;DHT22;1544;48.834;9.194;2023-07-22T04:30:37;15.40;66.60
3067;DHT22;1544;48.834;9.194;2023-07-22T04:33:15;15.40;66.30
3067;DHT22;1544;48.834;9.194;2023-07-22T04:35:55;15.40;66.20
3067;DHT22;1544;48.834;9.194;2023-07-22T04:38:33;15.40;66.10
3067;DHT22;1544;48.834;9.194;2023-07-22T04:41:09;15.50;65.90
3067;DHT22;1544;48.834;9.194;2023-07-22T04:43:45;15.50;65.80
3067;DHT22;1544;48.834;9.194;2023-07-22T04:46:21;15.50;65.70
3067;DHT22;1544;48.834;9.194;2023-07-22T04:48:59;15.50;65.50
3067;DHT22;1544;48.834;9.194;2023-07-22T04:51:35;15.60;65.20
3067;DHT22;1544;48.834;9.194;2023-07-22T04:54:11;15.60;64.60
3067;DHT22;1544;48.834;9.194;2023-07-22T04:56:48;15.60;64.20
3067;DHT22;1544;48.834;9.194;2023-07-22T04:59:24;15.70;63.90
3067;DHT22;1544;48.834;9.194;2023-07-22T05:02:00;15.70;63.10
3067;DHT22;1544;48.834;9.194;2023-07-22T05:04:36;15.80;62.80
3067;DHT22;1544;48.834;9.194;2023-07-22T05:07:12;15.80;62.50
3067;DHT22;1544;48.834;9.194;2023-07-22T05:09:48;15.80;62.10
3067;DHT22;1544;48.834;9.194;2023-07-22T05:12:25;15.90;61.70
3067;DHT22;1544;48.834;9.194;2023-07-22T05:15:01;16.00;60.80
3067;DHT22;1544;48.834;9.194;2023-07-22T05:17:37;16.00;60.50
3067;DHT22;1544;48.834;9.194;2023-07-22T05:20:14;16.00;60.50
3067;DHT22;1544;48.834;9.194;2023-07-22T05:22:50;16.10;60.50
3067;DHT22;1544;48.834;9.194;2023-07-22T05:25:26;16.20;60.00
3067;DHT22;1544;48.834;9.194;2023-07-22T05:28:02;16.20;59.30
3067;DHT22;1544;48.834;9.194;2023-07-22T05:30:38;16.20;59.30
3067;DHT22;1544;48.834;9.194;2023-07-22T05:33:14;16.20;59.30
3067;DHT22;1544;48.834;9.194;2023-07-22T05:35:50;16.30;59.00
3067;DHT22;1544;48.834;9.194;2023-07-22T05:38:27;16.40;58.90
3067;DHT22;1544;48.834;9.194;2023-07-22T05:41:03;16.40;58.30
3067;DHT22;1544;48.834;9.194;2023-07-22T05:43:38;16.50;58.00
3067;DHT22;1544;48.834;9.194;2023-07-22T05:46:14;16.50;57.80
3067;DHT22;1544;48.834;9.194;2023-07-22T05:48:51;16.60;57.80
3067;DHT22;1544;48.834;9.194;2023-07-22T05:51:26;16.60;57.50
3067;DHT22;1544;48.834;9.194;2023-07-22T05:54:03;16.70;56.80
3067;DHT22;1544;48.834;9.194;2023-07-22T05:56:39;16.70;56.30
3067;DHT22;1544;48.834;9.194;2023-07-22T05:59:17;16.80;56.60
3067;DHT22;1544;48.834;9.194;2023-07-22T06:01:57;16.80;56.10
3067;DHT22;1544;48.834;9.194;2023-07-22T06:04:33;16.90;55.50
3067;DHT22;1544;48.834;9.194;2023-07-22T06:07:09;16.90;55.10
3067;DHT22;1544;48.834;9.194;2023-07-22T06:09:45;16.90;54.50
3067;DHT22;1544;48.834;9.194;2023-07-22T06:12:22;17.00;54.60
3067;DHT22;1544;48.834;9.194;2023-07-22T06:14:58;17.10;54.70
3067;DHT22;1544;48.834;9.194;2023-07-22T06:17:34;17.70;55.10
3067;DHT22;1544;48.834;9.194;2023-07-22T06:20:11;17.20;53.70
3067;DHT22;1544;48.834;9.194;2023-07-22T06:22:47;17.30;52.70
3067;DHT22;1544;48.834;9.194;2023-07-22T06:25:23;17.30;51.90
3067;DHT22;1544;48.834;9.194;2023-07-22T06:27:59;17.30;50.90
3067;DHT22;1544;48.834;9.194;2023-07-22T06:30:36;17.40;50.90
3067;DHT22;1544;48.834;9.194;2023-07-22T06:33:12;17.50;50.30
3067;DHT22;1544;48.834;9.194;2023-07-22T06:35:48;17.60;50.30
3067;DHT22;1544;48.834;9.194;2023-07-22T06:38:27;17.70;50.10
3067;DHT22;1544;48.834;9.194;2023-07-22T06:41:03;17.70;49.90
3067;DHT22;1544;48.834;9.194;2023-07-22T06:43:39;17.80;49.50
3067;DHT22;1544;48.834;9.194;2023-07-22T06:46:15;17.90;49.30
3067;DHT22;1544;48.834;9.194;2023-07-22T06:48:52;18.00;49.10
3067;DHT22;1544;48.834;9.194;2023-07-22T06:51:28;18.10;48.90
3067;DHT22;1544;48.834;9.194;2023-07-22T06:54:04;18.20;48.30
3067;DHT22;1544;48.834;9.194;2023-07-22T06:56:40;18.30;47.30
3067;DHT22;1544;48.834;9.194;2023-07-22T06:59:17;18.30;47.10
3067;DHT22;1544;48.834;9.194;2023-07-22T07:01:53;18.40;46.80
3067;DHT22;1544;48.834;9.194;2023-07-22T07:04:29;18.50;46.30
3067;DHT22;1544;48.834;9.194;2023-07-22T07:07:05;18.60;45.90
3067;DHT22;1544;48.834;9.194;2023-07-22T07:09:42;18.60;45.20
3067;DHT22;1544;48.834;9.194;2023-07-22T07:12:18;18.70;45.10
3067;DHT22;1544;48.834;9.194;2023-07-22T07:14:54;18.80;45.10
3067;DHT22;1544;48.834;9.194;2023-07-22T07:17:30;18.90;45.10
3067;DHT22;1544;48.834;9.194;2023-07-22T07:20:07;18.90;44.90
3067;DHT22;1544;48.834;9.194;2023-07-22T07:22:43;19.10;44.90
3067;DHT22;1544;48.834;9.194;2023-07-22T07:25:19;19.20;44.70
3067;DHT22;1544;48.834;9.194;2023-07-22T07:27:55;19.30;43.90
3067;DHT22;1544;48.834;9.194;2023-07-22T07:30:31;19.40;43.80
3067;DHT22;1544;48.834;9.194;2023-07-22T07:33:08;19.40;43.80
3067;DHT22;1544;48.834;9.194;2023-07-22T07:35:46;19.50;43.80
3067;DHT22;1544;48.834;9.194;2023-07-22T07:38:23;19.60;43.60
3067;DHT22;1544;48.834;9.194;2023-07-22T07:41:01;19.60;43.60
3067;DHT22;1544;48.834;9.194;2023-07-22T07:43:40;19.70;43.80
3067;DHT22;1544;48.834;9.194;2023-07-22T07:46:29;19.80;43.30
3067;DHT22;1544;48.834;9.194;2023-07-22T07:49:05;19.90;43.30
3067;DHT22;1544;48.834;9.194;2023-07-22T07:51:41;20.00;43.00
3067;DHT22;1544;48.834;9.194;2023-07-22T07:54:18;20.00;42.60
3067;DHT22;1544;48.834;9.194;2023-07-22T07:56:54;20.10;40.90
3067;DHT22;1544;48.834;9.194;2023-07-22T07:59:30;20.10;41.00
3067;DHT22;1544;48.834;9.194;2023-07-22T08:02:06;20.30;41.30
3067;DHT22;1544;48.834;9.194;2023-07-22T08:04:44;20.30;41.30
3067;DHT22;1544;48.834;9.194;2023-07-22T08:07:21;20.40;41.50
3067;DHT22;1544;48.834;9.194;2023-07-22T08:09:57;20.50;41.70
3067;DHT22;1544;48.834;9.194;2023-07-22T08:12:34;20.60;41.50
3067;DHT22;1544;48.834;9.194;2023-07-22T08:15:10;20.70;41.50
3067;DHT22;1544;48.834;9.194;2023-07-22T08:17:46;20.70;41.00
3067;DHT22;1544;48.834;9.194;2023-07-22T08:20:22;20.80;40.80
3067;DHT22;1544;48.834;9.194;2023-07-22T08:22:58;20.90;40.80
3067;DHT22;1544;48.834;9.194;2023-07-22T08:25:34;20.90;40.10
3067;DHT22;1544;48.834;9.194;2023-07-22T08:28:10;21.10;40.10
3067;DHT22;1544;48.834;9.194;2023-07-22T08:30:48;21.20;39.90
3067;DHT22;1544;48.834;9.194;2023-07-22T08:33:24;21.30;39.30
3067;DHT22;1544;48.834;9.194;2023-07-22T08:36:15;21.60;39.50
3067;DHT22;1544;48.834;9.194;2023-07-22T08:38:51;21.90;39.30
3067;DHT22;1544;48.834;9.194;2023-07-22T08:41:28;22.30;39.20
3067;DHT22;1544;48.834;9.194;2023-07-22T08:44:04;22.60;38.70
3067;DHT22;1544;48.834;9.194;2023-07-22T08:46:45;22.70;37.10
3067;DHT22;1544;48.834;9.194;2023-07-22T08:49:22;22.80;36.70
3067;DHT22;1544;48.834;9.194;2023-07-22T08:51:59;22.90;36.70
3067;DHT22;1544;48.834;9.194;2023-07-22T08:54:36;22.90;36.60
3067;DHT22;1544;48.834;9.194;2023-07-22T08:57:13;23.00;36.00
3067;DHT22;1544;48.834;9.194;2023-07-22T08:59:49;23.10;35.60
3067;DHT22;1544;48.834;9.194;2023-07-22T09:02:25;23.10;32.60
3067;DHT22;1544;48.834;9.194;2023-07-22T09:05:02;23.30;32.50
3067;DHT22;1544;48.834;9.194;2023-07-22T09:07:38;23.40;32.80
3067;DHT22;1544;48.834;9.194;2023-07-22T09:10:15;23.50;33.40
3067;DHT22;1544;48.834;9.194;2023-07-22T09:12:51;23.70;34.00
3067;DHT22;1544;48.834;9.194;2023-07-22T09:15:28;23.80;33.70
3067;DHT22;1544;48.834;9.194;2023-07-22T09:18:04;24.00;33.80
3067;DHT22;1544;48.834;9.194;2023-07-22T09:20:40;24.20;33.60
3067;DHT22;1544;48.834;9.194;2023-07-22T09:23:18;24.20;33.10
3067;DHT22;1544;48.834;9.194;2023-07-22T09:26:11;24.40;33.20
3067;DHT22;1544;48.834;9.194;2023-07-22T09:28:57;24.50;33.00
3067;DHT22;1544;48.834;9.194;2023-07-22T09:31:49;24.50;33.10
3067;DHT22;1544;48.834;9.194;2023-07-22T09:34:26;24.70;32.90
3067;DHT22;1544;48.834;9.194;2023-07-22T09:37:03;24.90;32.80
3067;DHT22;1544;48.834;9.194;2023-07-22T09:39:41;25.10;33.20
3067;DHT22;1544;48.834;9.194;2023-07-22T09:42:26;25.40;33.10
3067;DHT22;1544;48.834;9.194;2023-07-22T09:45:02;25.70;32.70
3067;DHT22;1544;48.834;9.194;2023-07-22T09:47:45;25.80;32.50
3067;DHT22;1544;48.834;9.194;2023-07-22T09:50:24;26.00;32.60
3067;DHT22;1544;48.834;9.194;2023-07-22T09:53:01;26.10;32.00
3067;DHT22;1544;48.834;9.194;2023-07-22T09:55:38;26.20;30.30
3067;DHT22;1544;48.834;9.194;2023-07-22T09:58:14;26.20;30.10
3067;DHT22;1544;48.834;9.194;2023-07-22T10:00:51;26.00;30.00
3067;DHT22;1544;48.834;9.194;2023-07-22T10:03:29;25.90;30.10
3067;DHT22;1544;48.834;9.194;2023-07-22T10:06:06;26.00;30.20
3067;DHT22;1544;48.834;9.194;2023-07-22T10:08:43;26.10;30.20
3067;DHT22;1544;48.834;9.194;2023-07-22T10:11:22;26.10;30.20
3067;DHT22;1544;48.834;9.194;2023-07-22T10:14:02;26.20;29.60
3067;DHT22;1544;48.834;9.194;2023-07-22T10:16:38;26.20;29.50
3067;DHT22;1544;48.834;9.194;2023-07-22T10:19:14;26.20;29.40
3067;DHT22;1544;48.834;9.194;2023-07-22T10:21:51;26.20;29.50
3067;DHT22;1544;48.834;9.194;2023-07-22T10:24:28;26.30;29.60
3067;DHT22;1544;48.834;9.194;2023-07-22T10:27:04;26.30;29.10
3067;DHT22;1544;48.834;9.194;2023-07-22T10:29:43;26.40;29.30
3067;DHT22;1544;48.834;9.194;2023-07-22T10:32:21;26.30;29.00
3067;DHT22;1544;48.834;9.194;2023-07-22T10:34:57;26.30;28.90
3067;DHT22;1544;48.834;9.194;2023-07-22T10:37:33;26.30;28.80
3067;DHT22;1544;48.834;9.194;2023-07-22T10:43:06;26.40;28.30
3067;DHT22;1544;48.834;9.194;2023-07-22T10:45:45;26.40;28.50
3067;DHT22;1544;48.834;9.194;2023-07-22T10:48:27;26.50;29.20
3067;DHT22;1544;48.834;9.194;2023-07-22T10:51:10;26.60;28.50
3067;DHT22;1544;48.834;9.194;2023-07-22T10:53:47;26.60;28.20
3067;DHT22;1544;48.834;9.194;2023-07-22T10:56:24;26.80;28.80
3067;DHT22;1544;48.834;9.194;2023-07-22T10:59:03;27.00;29.40
3067;DHT22;1544;48.834;9.194;2023-07-22T11:01:40;27.00;27.50
3067;DHT22;1544;48.834;9.194;2023-07-22T11:04:28;26.90;27.70
3067;DHT22;1544;48.834;9.194;2023-07-22T11:07:42;27.00;28.00
3067;DHT22;1544;48.834;9.194;2023-07-22T11:10:19;26.90;27.40
3067;DHT22;1544;48.834;9.194;2023-07-22T11:12:55;26.90;27.70
3067;DHT22;1544;48.834;9.194;2023-07-22T11:15:31;27.00;27.70
3067;DHT22;1544;48.834;9.194;2023-07-22T11:18:07;27.00;27.90
3067;DHT22;1544;48.834;9.194;2023-07-22T11:20:43;27.10;27.20
3067;DHT22;1544;48.834;9.194;2023-07-22T11:23:19;27.30;27.20
3067;DHT22;1544;48.834;9.194;2023-07-22T11:25:55;27.20;27.10
3067;DHT22;1544;48.834;9.194;2023-07-22T11:28:31;27.20;26.80
3067;DHT22;1544;48.834;9.194;2023-07-22T11:31:07;27.20;27.20
3067;DHT22;1544;48.834;9.194;2023-07-22T11:33:43;27.20;27.30
3067;DHT22;1544;48.834;9.194;2023-07-22T11:36:22;27.30;27.50
3067;DHT22;1544;48.834;9.194;2023-07-22T11:39:22;27.40;27.90
3067;DHT22;1544;48.834;9.194;2023-07-22T11:42:03;27.50;26.90
3067;DHT22;1544;48.834;9.194;2023-07-22T11:44:39;27.80;26.80
3067;DHT22;1544;48.834;9.194;2023-07-22T11:47:16;28.00;27.40
3067;DHT22;1544;48.834;9.194;2023-07-22T11:49:52;28.00;26.80
3067;DHT22;1544;48.834;9.194;2023-07-22T11:52:28;27.90;26.60
3067;DHT22;1544;48.834;9.194;2023-07-22T11:55:04;27.80;26.50
3067;DHT22;1544;48.834;9.194;2023-07-22T11:57:40;27.80;26.50
3067;DHT22;1544;48.834;9.194;2023-07-22T12:00:17;27.70;27.00
3067;DHT22;1544;48.834;9.194;2023-07-22T12:02:53;27.80;27.00
3067;DHT22;1544;48.834;9.194;2023-07-22T12:05:35;27.90;27.10
3067;DHT22;1544;48.834;9.194;2023-07-22T12:08:15;27.80;27.00
3067;DHT22;1544;48.834;9.194;2023-07-22T12:11:00;27.70;26.70
3067;DHT22;1544;48.834;9.194;2023-07-22T12:13:37;27.60;26.40
3067;DHT22;1544;48.834;9.194;2023-07-22T12:16:13;27.50;26.30
3067;DHT22;1544;48.834;9.194;2023-07-22T12:18:49;27.40;26.60
3067;DHT22;1544;48.834;9.194;2023-07-22T12:21:27;27.40;26.50
3067;DHT22;1544;48.834;9.194;2023-07-22T12:24:03;27.30;26.70
3067;DHT22;1544;48.834;9.194;2023-07-22T12:26:40;27.40;27.00
3067;DHT22;1544;48.834;9.194;2023-07-22T12:29:16;27.60;26.70
3067;DHT22;1544;48.834;9.194;2023-07-22T12:31:52;27.00;27.10
3067;DHT22;1544;48.834;9.194;2023-07-22T12:34:28;27.90;26.30
3067;DHT22;1544;48.834;9.194;2023-07-22T12:37:04;28.00;26.10
3067;DHT22;1544;48.834;9.194;2023-07-22T12:39:43;28.00;26.00
3067;DHT22;1544;48.834;9.194;2023-07-22T12:42:19;28.10;26.40
3067;DHT22;1544;48.834;9.194;2023-07-22T12:44:55;28.40;26.30
3067;DHT22;1544;48.834;9.194;2023-07-22T12:47:31;28.60;25.80
3067;DHT22;1544;48.834;9.194;2023-07-22T12:50:08;28.70;25.90
3067;DHT22;1544;48.834;9.194;2023-07-22T12:52:44;28.80;25.70
3067;DHT22;1544;48.834;9.194;2023-07-22T12:55:20;29.00;25.80
3067;DHT22;1544;48.834;9.194;2023-07-22T12:57:56;29.20;25.50
3067;DHT22;1544;48.834;9.194;2023-07-22T13:00:32;29.30;25.10
3067;DHT22;1544;48.834;9.194;2023-07-22T13:03:08;29.60;25.20
3067;DHT22;1544;48.834;9.194;2023-07-22T13:05:44;29.70;24.70
3067;DHT22;1544;48.834;9.194;2023-07-22T13:08:24;29.70;24.70
3067;DHT22;1544;48.834;9.194;2023-07-22T13:11:00;29.60;24.60
3067;DHT22;1544;48.834;9.194;2023-07-22T13:13:36;29.60;24.70
3067;DHT22;1544;48.834;9.194;2023-07-22T13:16:12;29.70;24.50
3067;DHT22;1544;48.834;9.194;2023-07-22T13:18:48;29.70;24.80
3067;DHT22;1544;48.834;9.194;2023-07-22T13:21:23;29.60;24.60
3067;DHT22;1544;48.834;9.194;2023-07-22T13:24:00;29.50;25.30
3067;DHT22;1544;48.834;9.194;2023-07-22T13:26:36;29.40;25.00
3067;DHT22;1544;48.834;9.194;2023-07-22T13:29:15;29.20;25.00
3067;DHT22;1544;48.834;9.194;2023-07-22T13:31:51;29.30;25.30
3067;DHT22;1544;48.834;9.194;2023-07-22T13:34:27;29.40;25.30
3067;DHT22;1544;48.834;9.194;2023-07-22T13:37:03;29.70;25.40
3067;DHT22;1544;48.834;9.194;2023-07-22T13:39:39;29.90;25.00
3067;DHT22;1544;48.834;9.194;2023-07-22T13:42:15;30.20;24.60
3067;DHT22;1544;48.834;9.194;2023-07-22T13:44:51;30.30;24.50
3067;DHT22;1544;48.834;9.194;2023-07-22T13:47:27;30.30;24.40
3067;DHT22;1544;48.834;9.194;2023-07-22T13:50:03;30.40;24.50
3067;DHT22;1544;48.834;9.194;2023-07-22T13:52:40;30.60;24.50
3067;DHT22;1544;48.834;9.194;2023-07-22T13:55:16;30.90;24.20
3067;DHT22;1544;48.834;9.194;2023-07-22T13:57:52;30.90;24.10
3067;DHT22;1544;48.834;9.194;2023-07-22T14:00:28;30.70;24.10
3067;DHT22;1544;48.834;9.194;2023-07-22T14:03:04;30.60;24.30
3067;DHT22;1544;48.834;9.194;2023-07-22T14:05:41;30.50;24.30
3067;DHT22;1544;48.834;9.194;2023-07-22T14:08:17;30.30;24.40
3067;DHT22;1544;48.834;9.194;2023-07-22T14:10:53;30.30;24.40
3067;DHT22;1544;48.834;9.194;2023-07-22T14:13:29;30.40;24.60
3067;DHT22;1544;48.834;9.194;2023-07-22T14:16:05;30.70;24.30
3067;DHT22;1544;48.834;9.194;2023-07-22T14:18:57;30.90;24.50
3067;DHT22;1544;48.834;9.194;2023-07-22T14:21:33;31.20;24.70
3067;DHT22;1544;48.834;9.194;2023-07-22T14:24:09;31.30;24.50
3067;DHT22;1544;48.834;9.194;2023-07-22T14:26:45;31.30;24.50
3067;DHT22;1544;48.834;9.194;2023-07-22T14:29:23;31.50;24.30
3067;DHT22;1544;48.834;9.194;2023-07-22T14:32:01;31.80;24.20
3067;DHT22;1544;48.834;9.194;2023-07-22T14:34:37;32.00;24.20
3067;DHT22;1544;48.834;9.194;2023-07-22T14:37:13;32.00;24.60
3067;DHT22;1544;48.834;9.194;2023-07-22T14:39:50;32.00;24.60
3067;DHT22;1544;48.834;9.194;2023-07-22T14:42:26;32.30;24.30
3067;DHT22;1544;48.834;9.194;2023-07-22T14:45:02;32.40;23.80
3067;DHT22;1544;48.834;9.194;2023-07-22T14:47:39;32.40;23.90
3067;DHT22;1544;48.834;9.194;2023-07-22T14:50:15;32.70;23.20
3067;DHT22;1544;48.834;9.194;2023-07-22T14:52:51;32.60;23.50
3067;DHT22;1544;48.834;9.194;2023-07-22T14:55:27;32.20;23.50
3067;DHT22;1544;48.834;9.194;2023-07-22T14:58:03;31.80;23.70
3067;DHT22;1544;48.834;9.194;2023-07-22T15:00:39;31.40;23.90
3067;DHT22;1544;48.834;9.194;2023-07-22T15:03:15;31.00;23.90
3067;DHT22;1544;48.834;9.194;2023-07-22T15:05:52;30.60;24.00
3067;DHT22;1544;48.834;9.194;2023-07-22T15:08:28;30.50;23.90
3067;DHT22;1544;48.834;9.194;2023-07-22T15:11:04;30.70;24.10
3067;DHT22;1544;48.834;9.194;2023-07-22T15:13:40;30.70;24.00
3067;DHT22;1544;48.834;9.194;2023-07-22T15:16:16;30.80;23.80
3067;DHT22;1544;48.834;9.194;2023-07-22T15:18:52;30.80;23.60
3067;DHT22;1544;48.834;9.194;2023-07-22T15:21:28;30.70;23.70
3067;DHT22;1544;48.834;9.194;2023-07-22T15:24:05;30.60;23.70
3067;DHT22;1544;48.834;9.194;2023-07-22T15:26:41;30.60;23.90
3067;DHT22;1544;48.834;9.194;2023-07-22T15:29:17;30.60;23.80
3067;DHT22;1544;48.834;9.194;2023-07-22T15:31:53;30.40;23.70
3067;DHT22;1544;48.834;9.194;2023-07-22T15:34:29;30.20;24.00
3067;DHT22;1544;48.834;9.194;2023-07-22T15:37:05;29.80;24.10
3067;DHT22;1544;48.834;9.194;2023-07-22T15:39:41;29.60;24.50
3067;DHT22;1544;48.834;9.194;2023-07-22T15:42:17;29.40;24.60
3067;DHT22;1544;48.834;9.194;2023-07-22T15:44:53;29.10;24.40
3067;DHT22;1544;48.834;9.194;2023-07-22T15:47:29;29.10;24.80
3067;DHT22;1544;48.834;9.194;2023-07-22T15:50:06;29.10;25.10
3067;DHT22;1544;48.834;9.194;2023-07-22T15:52:44;29.10;25.20
3067;DHT22;1544;48.834;9.194;2023-07-22T15:55:21;29.20;25.40
3067;DHT22;1544;48.834;9.194;2023-07-22T15:57:57;29.50;25.10
3067;DHT22;1544;48.834;9.194;2023-07-22T16:00:33;29.70;24.90
3067;DHT22;1544;48.834;9.194;2023-07-22T16:03:09;29.90;24.90
3067;DHT22;1544;48.834;9.194;2023-07-22T16:05:46;29.80;24.80
3067;DHT22;1544;48.834;9.194;2023-07-22T16:08:22;29.70;24.90
3067;DHT22;1544;48.834;9.194;2023-07-22T16:11:00;29.80;24.90
3067;DHT22;1544;48.834;9.194;2023-07-22T16:13:36;29.80;24.90
3067;DHT22;1544;48.834;9.194;2023-07-22T16:16:12;29.80;25.00
3067;DHT22;1544;48.834;9.194;2023-07-22T16:18:49;29.90;24.90
3067;DHT22;1544;48.834;9.194;2023-07-22T16:21:25;30.00;25.10
3067;DHT22;1544;48.834;9.194;2023-07-22T16:24:01;30.10;25.20
3067;DHT22;1544;48.834;9.194;2023-07-22T16:26:37;29.90;25.10
3067;DHT22;1544;48.834;9.194;2023-07-22T16:29:13;29.70;25.20
3067;DHT22;1544;48.834;9.194;2023-07-22T16:31:52;29.80;25.00
3067;DHT22;1544;48.834;9.194;2023-07-22T16:34:28;29.80;25.20
3067;DHT22;1544;48.834;9.194;2023-07-22T16:37:04;29.90;25.10
3067;DHT22;1544;48.834;9.194;2023-07-22T16:39:41;29.70;24.90
3067;DHT22;1544;48.834;9.194;2023-07-22T16:42:17;29.60;25.00
3067;DHT22;1544;48.834;9.194;2023-07-22T16:44:53;29.80;24.90
3067;DHT22;1544;48.834;9.194;2023-07-22T16:47:29;30.00;24.90
3067;DHT22;1544;48.834;9.194;2023-07-22T16:50:05;30.50;24.80
3067;DHT22;1544;48.834;9.194;2023-07-22T16:52:43;31.50;24.20
3067;DHT22;1544;48.834;9.194;2023-07-22T16:55:19;31.60;24.40
3067;DHT22;1544;48.834;9.194;2023-07-22T16:57:55;31.70;23.90
3067;DHT22;1544;48.834;9.194;2023-07-22T17:00:31;31.50;23.80
3067;DHT22;1544;48.834;9.194;2023-07-22T17:03:07;31.40;24.00
3067;DHT22;1544;48.834;9.194;2023-07-22T17:05:43;31.30;24.00
3067;DHT22;1544;48.834;9.194;2023-07-22T17:08:19;31.50;23.90
3067;DHT22;1544;48.834;9.194;2023-07-22T17:10:56;31.60;24.00
3067;DHT22;1544;48.834;9.194;2023-07-22T17:13:32;31.80;23.80
3067;DHT22;1544;48.834;9.194;2023-07-22T17:16:08;32.00;23.90
3067;DHT22;1544;48.834;9.194;2023-07-22T17:18:44;32.00;23.70
3067;DHT22;1544;48.834;9.194;2023-07-22T17:21:19;31.80;23.60
3067;DHT22;1544;48.834;9.194;2023-07-22T17:23:56;31.60;23.80
3067;DHT22;1544;48.834;9.194;2023-07-22T17:26:32;31.60;24.00